Time;durP1;ratioP1;P1;durP2;ratioP2;P2;SDS_P1;SDS_P2;PMS_P1;PMS_P2;Temp;Humidity;BMP_temperature;BMP_pressure;BME280_temperature;BME280_humidity;BME280_pressure;Samples;Min_cycle;Max_cycle;Signal;HPM_P1;HPM_P2
2022/05/04 00:01:43;;;;;;;7.57;6.77;;;;;;;13.36;75.03;100032.78;5062008;28;20236;-60
2022/05/04 00:04:08;;;;;;;6.83;6.13;;;;;;;13.36;75.68;100029.38;5056105;28;20631;-61
2022/05/04 00:06:34;;;;;;;7.47;6.77;;;;;;;13.38;75.38;100027.53;5056784;28;20703;-61
2022/05/04 00:08:59;;;;;;;7.57;6.57;;;;;;;13.34;73.98;100021.72;5073200;28;20250;-58
2022/05/04 00:11:24;;;;;;;7.67;6.70;;;;;;;13.32;73.98;100028.75;5073733;28;21028;-61
2022/05/04 00:13:50;;;;;;;6.80;6.20;;;;;;;13.13;73.65;100029.16;5071276;28;20241;-60
2022/05/04 00:16:15;;;;;;;7.67;6.30;;;;;;;13.15;74.86;100029.88;5071166;28;20687;-61
2022/05/04 00:18:41;;;;;;;6.37;5.77;;;;;;;13.19;74.87;100031.31;5073029;28;20173;-60
2022/05/04 00:21:07;;;;;;;7.50;6.17;;;;;;;13.22;74.87;100025.97;5071111;28;20610;-60
2022/05/04 00:23:33;;;;;;;7.60;6.83;;;;;;;13.28;74.41;100021.31;5080059;28;20180;-62
2022/05/04 00:25:59;;;;;;;6.47;5.87;;;;;;;13.24;73.73;100021.50;5072750;28;20192;-61
2022/05/04 00:28:24;;;;;;;6.87;6.17;;;;;;;13.22;73.26;100018.22;5072734;28;20172;-61
2022/05/04 00:30:49;;;;;;;6.50;5.80;;;;;;;13.16;73.53;100020.38;5068542;28;20231;-60
2022/05/04 00:33:15;;;;;;;7.30;5.30;;;;;;;13.09;73.55;100014.78;5065991;28;20177;-60
2022/05/04 00:35:41;;;;;;;7.10;5.73;;;;;;;13.11;74.22;100012.09;5072228;28;20651;-61
2022/05/04 00:38:06;;;;;;;6.10;5.60;;;;;;;13.08;74.20;100008.81;5072395;28;20601;-61
2022/05/04 00:40:32;;;;;;;6.90;6.23;;;;;;;13.07;74.73;100014.91;5066339;28;20228;-60
2022/05/04 00:42:57;;;;;;;11.70;6.30;;;;;;;13.00;75.70;100013.66;5084688;28;20172;-59
2022/05/04 00:45:23;;;;;;;6.57;5.97;;;;;;;13.01;75.84;100009.31;5071161;28;20530;-59
2022/05/04 00:47:48;;;;;;;8.80;6.63;;;;;;;12.95;77.13;100015.72;5071872;28;20658;-59
2022/05/04 00:50:13;;;;;;;7.47;6.83;;;;;;;12.90;77.89;100018.59;5051134;28;20209;-60
2022/05/04 00:52:42;;;;;;;6.63;6.07;;;;;;;12.65;79.32;100014.22;5071196;28;20184;-61
2022/05/04 00:55:09;;;;;;;7.97;7.17;;;;;;;12.25;81.19;100022.75;5072364;28;20259;-59
2022/05/04 01:00:21;;;;;;;12.47;7.00;;;;;;;12.02;83.06;100016.44;5062004;28;20544;-59
2022/05/04 01:02:46;;;;;;;7.33;6.43;;;;;;;12.16;82.37;100022.47;5065293;28;20178;-59
2022/05/04 01:05:12;;;;;;;7.57;6.77;;;;;;;12.23;81.99;100026.31;5052352;28;20504;-61
2022/05/04 01:07:38;;;;;;;8.90;6.40;;;;;;;12.31;82.21;100024.09;5064531;28;20207;-60
2022/05/04 01:10:04;;;;;;;7.20;6.33;;;;;;;12.25;81.64;100015.00;5062743;28;20196;-60
2022/05/04 01:12:31;;;;;;;8.17;7.00;;;;;;;12.23;81.10;100026.31;5070430;28;20549;-59
2022/05/04 01:14:57;;;;;;;7.03;6.40;;;;;;;12.17;81.40;100018.94;5052072;28;20225;-60
2022/05/04 01:17:22;;;;;;;7.23;6.63;;;;;;;12.09;81.67;100025.44;5051690;28;20211;-60
2022/05/04 01:19:47;;;;;;;11.77;6.77;;;;;;;11.86;83.16;100019.09;5064128;28;20204;-60
2022/05/04 01:22:12;;;;;;;8.07;6.53;;;;;;;11.90;83.28;100020.53;5045699;28;20278;-60
2022/05/04 01:24:39;;;;;;;8.00;6.53;;;;;;;11.87;83.93;100027.63;5071886;28;20183;-60
2022/05/04 01:27:09;;;;;;;9.23;7.40;;;;;;;11.81;85.08;100021.13;5071376;28;20183;-60
2022/05/04 01:29:34;;;;;;;8.23;7.43;;;;;;;11.79;85.94;100026.38;5072176;28;20505;-59
2022/05/04 01:32:00;;;;;;;7.27;6.67;;;;;;;11.70;86.22;100024.34;5060623;28;20283;-60
2022/05/04 01:34:28;;;;;;;7.37;6.67;;;;;;;11.58;86.28;100018.16;5070479;28;20200;-60
2022/05/04 01:36:53;;;;;;;8.13;7.37;;;;;;;11.37;87.40;100019.47;5070094;28;20193;-60
2022/05/04 01:39:18;;;;;;;8.17;7.40;;;;;;;11.38;87.44;100018.53;5071805;28;20175;-60
2022/05/04 01:44:28;;;;;;;7.40;6.70;;;;;;;11.29;87.50;100019.91;5070545;28;20183;-59
2022/05/04 01:46:54;;;;;;;9.30;6.77;;;;;;;11.07;90.91;100017.75;5047357;28;20277;-59
2022/05/04 01:49:19;;;;;;;7.70;6.87;;;;;;;10.91;93.60;100018.63;5071463;28;20682;-59
2022/05/04 01:51:44;;;;;;;7.60;6.80;;;;;;;10.92;94.59;100020.28;5074692;28;20223;-59
2022/05/04 01:54:10;;;;;;;8.53;6.97;;;;;;;10.96;94.33;100013.22;5072879;28;20183;-58
2022/05/04 01:56:35;;;;;;;7.83;7.13;;;;;;;11.05;93.71;100017.88;5071272;28;20212;-59
2022/05/04 01:59:00;;;;;;;7.53;6.93;;;;;;;11.12;93.01;100010.59;5071797;28;20208;-59
2022/05/04 02:01:25;;;;;;;9.83;7.33;;;;;;;11.18;91.94;100017.97;5060467;28;20704;-61
2022/05/04 02:03:51;;;;;;;7.23;6.63;;;;;;;11.22;91.01;100022.00;5056445;28;20185;-59
2022/05/04 02:06:16;;;;;;;7.83;7.13;;;;;;;11.25;91.18;100015.84;5069154;28;20181;-60
2022/05/04 02:08:42;;;;;;;8.27;7.47;;;;;;;11.29;90.76;100015.59;5071329;28;20215;-60
2022/05/04 02:11:08;;;;;;;8.00;7.30;;;;;;;11.35;90.18;100019.56;5069697;28;20228;-59
2022/05/04 02:13:33;;;;;;;7.50;6.73;;;;;;;11.34;91.33;100015.31;5070173;28;20603;-60
2022/05/04 02:15:58;;;;;;;10.10;8.93;;;;;;;11.41;91.27;100018.34;5070780;28;20232;-62
2022/05/04 02:18:23;;;;;;;7.97;7.13;;;;;;;11.33;91.93;100018.00;5071321;28;20204;-59
2022/05/04 02:20:49;;;;;;;7.30;6.60;;;;;;;11.31;93.31;100020.63;5067484;28;20262;-58
2022/05/04 02:23:14;;;;;;;8.67;7.10;;;;;;;11.34;93.04;100017.06;5070028;28;20554;-59
2022/05/04 02:25:39;;;;;;;8.10;7.00;;;;;;;11.33;91.70;100012.84;5071346;28;20200;-59
2022/05/04 02:28:05;;;;;;;8.23;7.20;;;;;;;11.37;90.53;100020.28;5071107;28;20230;-60
2022/05/04 02:30:30;;;;;;;8.70;7.73;;;;;;;11.39;89.40;100018.44;5064490;28;20370;-60
2022/05/04 02:32:55;;;;;;;7.83;7.13;;;;;;;11.38;87.46;100014.22;5087037;28;20583;-60
2022/05/04 02:38:05;;;;;;;9.03;7.07;;;;;;;11.34;87.26;100015.31;5074540;28;20647;-60
2022/05/04 02:40:30;;;;;;;8.87;7.30;;;;;;;11.41;86.92;100015.78;5068667;28;20255;-60
2022/05/04 02:42:55;;;;;;;7.90;7.10;;;;;;;11.34;87.36;100014.47;5074944;28;20177;-60
2022/05/04 02:45:21;;;;;;;7.17;6.43;;;;;;;11.37;87.11;100024.63;5062407;28;20225;-60
2022/05/04 02:47:46;;;;;;;10.33;7.33;;;;;;;11.40;87.25;100020.09;5073044;28;20188;-60
2022/05/04 02:50:12;;;;;;;7.23;6.53;;;;;;;11.40;87.04;100024.41;5064220;28;20181;-59
2022/05/04 02:52:37;;;;;;;11.17;7.30;;;;;;;11.39;87.46;100023.59;5073527;28;20179;-60
2022/05/04 02:55:04;;;;;;;7.43;6.73;;;;;;;11.35;87.09;100027.28;5073591;28;20169;-61
2022/05/04 02:57:29;;;;;;;7.60;6.87;;;;;;;11.27;87.59;100030.28;5072713;28;20298;-60
2022/05/04 02:59:54;;;;;;;7.20;6.50;;;;;;;11.24;88.38;100034.81;5073352;28;20180;-60
2022/05/04 03:02:29;;;;;;;8.23;7.43;;;;;;;11.05;88.46;100035.03;5033581;28;20889;-60
2022/05/04 03:05:03;;;;;;;7.90;6.67;;;;;;;10.95;88.10;100038.16;5053070;28;20185;-59
2022/05/04 03:07:28;;;;;;;8.13;6.90;;;;;;;10.95;88.18;100035.56;5051780;28;20180;-59
2022/05/04 03:09:55;;;;;;;7.60;6.03;;;;;;;10.90;87.22;100040.16;5054394;28;20300;-59
2022/05/04 03:12:21;;;;;;;7.10;6.40;;;;;;;10.95;87.03;100033.00;5060488;28;20232;-59
2022/05/04 03:14:46;;;;;;;8.10;6.63;;;;;;;10.90;87.48;100037.59;5054235;28;20700;-59
2022/05/04 03:17:12;;;;;;;7.80;7.00;;;;;;;10.81;87.81;100033.75;5059781;28;20666;-60
2022/05/04 03:19:37;;;;;;;8.43;7.20;;;;;;;10.71;89.99;100030.06;5073754;28;20699;-60
2022/05/04 03:22:03;;;;;;;7.80;6.60;;;;;;;10.70;90.20;100036.13;5079609;28;20223;-59
2022/05/04 03:24:28;;;;;;;7.70;6.40;;;;;;;10.68;89.80;100037.97;5074173;28;20199;-59
2022/05/04 03:26:53;;;;;;;7.13;6.43;;;;;;;10.68;89.74;100029.41;5072373;28;20181;-60
2022/05/04 03:29:19;;;;;;;8.43;7.60;;;;;;;10.73;89.71;100033.38;5074134;28;20203;-59
2022/05/04 03:31:45;;;;;;;7.60;6.30;;;;;;;10.77;89.13;100036.63;5042277;28;20243;-58
2022/05/04 03:34:10;;;;;;;7.33;6.33;;;;;;;10.83;88.62;100033.69;5073531;28;20201;-59
2022/05/04 03:36:35;;;;;;;7.70;6.97;;;;;;;10.71;89.43;100032.63;5073502;28;20212;-59
2022/05/04 03:39:01;;;;;;;7.33;6.67;;;;;;;10.61;92.00;100026.34;5074020;28;20188;-60
2022/05/04 03:41:27;;;;;;;7.80;6.97;;;;;;;10.57;92.48;100032.59;5059486;28;20228;-58
2022/05/04 03:43:52;;;;;;;7.30;6.60;;;;;;;10.59;93.48;100044.47;5061909;28;20272;-58
2022/05/04 03:46:20;;;;;;;6.90;6.30;;;;;;;10.60;94.49;100050.41;5072008;28;20268;-59
2022/05/04 03:48:50;;;;;;;7.27;6.53;;;;;;;10.55;94.75;100047.28;5072155;28;20627;-58
2022/05/04 03:51:19;;;;;;;9.73;7.23;;;;;;;10.55;94.55;100049.84;5062659;28;20224;-59
2022/05/04 03:53:45;;;;;;;7.23;6.50;;;;;;;10.51;94.55;100051.75;5066167;28;20175;-58
2022/05/04 03:56:11;;;;;;;7.50;6.80;;;;;;;10.49;94.76;100044.13;5072958;28;20179;-59
2022/05/04 03:58:39;;;;;;;11.80;7.10;;;;;;;10.47;94.09;100047.69;5073410;28;20263;-61
2022/05/04 04:01:04;;;;;;;7.37;6.77;;;;;;;10.45;92.95;100044.38;5060768;28;20574;-61
2022/05/04 04:03:30;;;;;;;7.93;6.47;;;;;;;10.44;93.06;100043.56;5072492;28;20181;-58
2022/05/04 04:05:55;;;;;;;6.93;6.33;;;;;;;10.43;92.99;100036.75;5073465;28;20173;-59
2022/05/04 04:08:21;;;;;;;7.23;6.63;;;;;;;10.40;92.97;100042.06;5072837;28;20215;-59
2022/05/04 04:10:46;;;;;;;7.27;6.57;;;;;;;10.52;91.85;100048.28;5068697;28;20322;-60
2022/05/04 04:13:12;;;;;;;7.60;6.90;;;;;;;10.56;90.88;100048.94;5083000;28;20176;-59
2022/05/04 04:15:37;;;;;;;8.27;7.47;;;;;;;10.64;91.24;100044.19;5071419;28;20229;-59
2022/05/04 04:18:03;;;;;;;9.17;6.70;;;;;;;10.70;92.08;100048.97;5072721;28;20232;-59
2022/05/04 04:23:12;;;;;;;8.37;6.60;;;;;;;10.86;91.52;100048.94;5083051;28;20175;-59
2022/05/04 04:25:38;;;;;;;12.73;6.97;;;;;;;10.90;91.57;100049.59;5072769;28;20173;-59
2022/05/04 04:28:04;;;;;;;8.70;7.03;;;;;;;10.78;92.54;100048.56;5072392;28;20180;-59
2022/05/04 04:30:30;;;;;;;8.17;7.43;;;;;;;10.96;92.22;100054.41;5066080;28;20237;-59
2022/05/04 04:32:55;;;;;;;9.13;7.07;;;;;;;11.09;90.69;100057.94;5071707;28;20226;-60
2022/05/04 04:35:20;;;;;;;7.70;6.93;;;;;;;11.14;90.19;100057.69;5072737;28;20181;-60
2022/05/04 04:37:46;;;;;;;8.27;7.00;;;;;;;11.30;89.41;100058.44;5072101;28;20192;-60
2022/05/04 04:40:11;;;;;;;9.40;7.13;;;;;;;11.45;88.84;100055.91;5061321;28;20188;-61
2022/05/04 04:42:37;;;;;;;10.27;6.87;;;;;;;11.51;88.54;100055.53;5085982;28;20626;-58
2022/05/04 04:45:03;;;;;;;7.97;6.23;;;;;;;11.46;86.97;100054.97;5072357;28;20180;-60
2022/05/04 04:47:30;;;;;;;7.80;7.13;;;;;;;11.61;86.31;100061.78;5071944;28;20177;-59
2022/05/04 04:49:58;;;;;;;8.93;6.60;;;;;;;11.67;85.31;100060.63;5072693;28;20169;-60
2022/05/04 04:52:24;;;;;;;8.93;6.00;;;;;;;11.68;84.97;100061.44;5061227;28;20674;-59
2022/05/04 04:54:50;;;;;;;7.03;6.23;;;;;;;11.78;85.05;100065.09;5071721;28;20188;-61
2022/05/04 04:57:15;;;;;;;7.50;6.50;;;;;;;11.88;84.89;100073.13;5070352;28;20238;-60
2022/05/04 04:59:42;;;;;;;7.50;6.40;;;;;;;11.99;83.23;100070.75;5072296;28;20189;-60
2022/05/04 05:02:07;;;;;;;7.47;6.73;;;;;;;11.92;82.89;100078.00;5072850;28;20250;-60
2022/05/04 05:04:32;;;;;;;6.23;5.57;;;;;;;11.94;83.01;100072.75;5070184;28;20581;-60
2022/05/04 05:06:58;;;;;;;8.43;6.53;;;;;;;12.05;82.75;100077.28;5076133;28;20177;-60
2022/05/04 05:09:23;;;;;;;7.83;6.83;;;;;;;12.12;81.54;100076.00;5051747;28;20257;-61
2022/05/04 05:11:48;;;;;;;9.30;6.70;;;;;;;12.25;80.42;100089.78;5054986;28;20273;-60
2022/05/04 05:16:58;;;;;;;8.13;6.43;;;;;;;12.41;81.41;100074.16;5057900;28;20235;-60
2022/05/04 05:19:23;;;;;;;7.13;6.53;;;;;;;12.43;81.16;100074.09;5053039;28;20181;-62
2022/05/04 05:21:48;;;;;;;9.03;7.43;;;;;;;12.41;81.66;100074.16;5044936;28;20217;-60
2022/05/04 05:24:14;;;;;;;6.83;6.13;;;;;;;12.50;81.24;100074.53;5054810;28;20210;-60
2022/05/04 05:26:39;;;;;;;6.90;6.30;;;;;;;12.56;80.64;100080.09;5050330;28;20278;-61
2022/05/04 05:29:05;;;;;;;8.00;6.70;;;;;;;12.58;81.95;100080.84;5051093;28;20184;-61
2022/05/04 05:31:30;;;;;;;6.80;6.20;;;;;;;12.70;81.21;100081.84;5052217;28;20299;-60
2022/05/04 05:33:55;;;;;;;7.17;5.97;;;;;;;12.73;80.23;100086.78;5059299;28;20181;-61
2022/05/04 05:36:20;;;;;;;7.03;5.50;;;;;;;12.84;79.97;100086.09;5070352;28;20231;-61
2022/05/04 05:38:46;;;;;;;7.13;6.50;;;;;;;12.96;78.96;100083.66;5055818;28;20196;-60
2022/05/04 05:41:11;;;;;;;6.57;5.97;;;;;;;13.04;76.44;100078.81;5049620;28;20384;-62
2022/05/04 05:43:36;;;;;;;6.83;6.17;;;;;;;13.10;75.89;100082.75;5067292;28;20187;-61
2022/05/04 05:46:02;;;;;;;6.83;6.17;;;;;;;13.26;72.16;100082.56;5068326;28;20189;-63
2022/05/04 05:48:27;;;;;;;6.67;6.00;;;;;;;13.36;72.46;100088.81;5052148;28;20188;-63
2022/05/04 05:50:52;;;;;;;7.97;5.80;;;;;;;13.63;71.88;100081.00;5049998;28;20652;-63
2022/05/04 05:53:19;;;;;;;7.30;6.37;;;;;;;13.82;73.14;100088.31;5060082;28;20188;-64
2022/05/04 05:55:44;;;;;;;6.60;6.00;;;;;;;13.87;70.76;100086.22;5060750;28;20196;-63
2022/05/04 05:58:10;;;;;;;6.43;5.83;;;;;;;13.87;69.65;100091.41;5056725;28;20213;-60
2022/05/04 06:00:35;;;;;;;6.50;5.77;;;;;;;14.20;68.43;100099.50;5045309;28;20229;-60
2022/05/04 06:03:01;;;;;;;10.13;6.07;;;;;;;14.38;68.58;100101.78;5070471;28;20215;-60
2022/05/04 06:05:26;;;;;;;8.57;6.13;;;;;;;14.51;66.71;100098.19;5072587;28;20177;-63
2022/05/04 06:07:51;;;;;;;8.10;5.80;;;;;;;14.48;67.62;100095.81;5074640;28;20211;-61
2022/05/04 06:10:17;;;;;;;6.83;6.13;;;;;;;14.38;65.12;100094.00;5064323;28;20203;-61
2022/05/04 06:12:44;;;;;;;8.10;5.63;;;;;;;14.25;64.44;100091.44;5074082;28;20181;-59
2022/05/04 06:15:10;;;;;;;8.00;6.23;;;;;;;14.11;64.70;100092.41;5075015;28;20224;-59
2022/05/04 06:17:36;;;;;;;8.63;6.63;;;;;;;14.24;64.16;100097.53;5072788;28;20201;-61
2022/05/04 06:20:04;;;;;;;8.90;6.60;;;;;;;14.13;63.34;100101.72;5073899;28;20187;-60
2022/05/04 06:22:29;;;;;;;10.30;6.53;;;;;;;13.87;65.23;100101.75;5046888;28;20208;-60
2022/05/04 06:24:54;;;;;;;7.00;6.13;;;;;;;13.87;63.96;100103.50;5074831;28;20601;-61
2022/05/04 06:27:20;;;;;;;7.00;6.17;;;;;;;14.13;63.76;100103.47;5074629;28;20172;-60
2022/05/04 06:35:17;;;;;;;7.80;6.00;;;;;;;15.95;57.09;100094.59;5066877;28;20518;-59
2022/05/04 06:37:43;;;;;;;7.47;5.83;;;;;;;17.29;53.35;100096.13;5068791;28;20201;-59
2022/05/04 06:40:09;;;;;;;6.30;5.70;;;;;;;18.11;49.59;100088.41;5064441;28;20208;-60
2022/05/04 06:42:34;;;;;;;8.93;5.50;;;;;;;18.47;46.76;100093.97;5057713;28;20334;-60
2022/05/04 06:45:00;;;;;;;7.43;5.20;;;;;;;19.57;45.17;100084.97;5074807;28;20169;-60
2022/05/04 06:47:25;;;;;;;7.80;5.83;;;;;;;19.95;44.19;100091.03;5072950;28;20185;-59
2022/05/04 06:49:50;;;;;;;6.60;5.50;;;;;;;19.19;44.32;100098.00;5074146;28;20173;-60
2022/05/04 06:52:15;;;;;;;6.47;5.60;;;;;;;18.11;46.36;100101.44;5063462;28;20231;-60
2022/05/04 06:54:42;;;;;;;7.07;5.63;;;;;;;17.58;48.05;100093.66;5074980;28;20188;-60
2022/05/04 06:57:07;;;;;;;5.80;5.20;;;;;;;17.13;49.68;100093.97;5074181;28;20184;-59
2022/05/04 06:59:33;;;;;;;8.20;5.53;;;;;;;16.43;51.73;100104.72;5074296;28;20231;-59
2022/05/04 07:01:58;;;;;;;7.77;5.67;;;;;;;16.14;52.35;100102.63;5036365;28;20309;-60
2022/05/04 07:04:23;;;;;;;6.63;5.97;;;;;;;15.61;54.83;100102.34;5073590;28;20178;-60
2022/05/04 07:06:49;;;;;;;6.60;5.83;;;;;;;15.35;56.52;100110.31;5073495;28;20180;-60
2022/05/04 07:09:14;;;;;;;5.93;5.33;;;;;;;15.75;57.28;100106.47;5074205;28;20193;-61
2022/05/04 07:11:39;;;;;;;10.27;6.43;;;;;;;16.62;54.45;100104.06;5076368;28;20247;-60
2022/05/04 07:14:05;;;;;;;7.47;5.37;;;;;;;17.13;52.86;100106.97;5076884;28;20184;-59
2022/05/04 07:16:30;;;;;;;7.83;5.83;;;;;;;18.34;48.52;100105.47;5052245;28;20240;-59
2022/05/04 07:18:55;;;;;;;5.30;4.43;;;;;;;19.54;45.69;100100.94;5064536;28;20189;-60
2022/05/04 07:21:20;;;;;;;6.20;5.60;;;;;;;20.22;43.33;100102.44;5053671;28;20346;-60
2022/05/04 07:23:46;;;;;;;6.70;5.30;;;;;;;19.95;43.85;100101.47;5058912;28;20181;-58
2022/05/04 07:26:11;;;;;;;7.33;5.47;;;;;;;20.73;41.25;100105.44;5053402;28;20239;-60
2022/05/04 07:28:38;;;;;;;5.90;5.30;;;;;;;20.72;41.38;100101.16;5052664;28;20651;-60
2022/05/04 07:31:03;;;;;;;5.63;5.13;;;;;;;22.92;37.71;100107.75;5033623;28;20498;-59
2022/05/04 07:33:29;;;;;;;10.00;5.80;;;;;;;22.40;36.92;100104.44;5057035;28;20184;-59
2022/05/04 07:35:54;;;;;;;7.60;5.47;;;;;;;21.74;38.36;100103.34;5073342;28;20184;-60
2022/05/04 07:38:19;;;;;;;5.03;4.63;;;;;;;21.20;39.54;100106.09;5073349;28;20243;-59
2022/05/04 07:43:29;;;;;;;6.20;5.40;;;;;;;19.16;44.99;100110.47;5058713;28;20208;-60
2022/05/04 07:45:55;;;;;;;8.97;5.60;;;;;;;18.85;45.26;100113.22;5056268;28;20182;-60
2022/05/04 07:48:21;;;;;;;7.03;5.50;;;;;;;18.12;46.40;100113.50;5054990;28;20200;-61
2022/05/04 07:50:46;;;;;;;6.90;5.77;;;;;;;18.40;46.30;100117.13;5049969;28;20216;-58
2022/05/04 07:53:12;;;;;;;6.20;5.60;;;;;;;17.97;46.80;100119.06;5070048;28;20670;-60
2022/05/04 07:55:37;;;;;;;8.57;5.50;;;;;;;18.51;46.24;100119.63;5083655;28;20271;-60
2022/05/04 07:58:02;;;;;;;5.70;5.20;;;;;;;19.14;45.12;100120.25;5052422;28;20205;-59
2022/05/04 08:05:56;;;;;;;5.70;5.17;;;;;;;19.90;43.07;100132.41;5059359;28;20188;-60
2022/05/04 08:08:21;;;;;;;6.80;6.13;;;;;;;18.37;46.90;100136.47;5070094;28;20542;-59
2022/05/04 08:10:46;;;;;;;8.07;6.50;;;;;;;18.17;47.41;100126.94;5058334;28;20285;-60
2022/05/04 08:13:12;;;;;;;6.00;5.40;;;;;;;18.49;46.66;100137.19;5057672;28;20659;-61
2022/05/04 08:15:37;;;;;;;8.57;6.00;;;;;;;18.46;46.80;100131.41;5052896;28;20225;-61
2022/05/04 08:18:03;;;;;;;5.50;4.93;;;;;;;18.43;47.50;100134.28;5060278;28;20298;-60
2022/05/04 08:20:29;;;;;;;7.43;6.30;;;;;;;18.54;47.33;100139.38;5053412;28;20236;-60
2022/05/04 08:22:55;;;;;;;6.00;5.47;;;;;;;18.27;47.01;100137.38;5064896;28;20170;-61
2022/05/04 08:25:20;;;;;;;6.93;5.93;;;;;;;18.62;46.40;100133.47;5052853;28;20177;-60
2022/05/04 08:27:46;;;;;;;8.60;5.47;;;;;;;18.71;46.17;100138.69;5051760;28;20275;-61
2022/05/04 08:30:11;;;;;;;7.28;6.15;;;;;;;18.62;46.14;100134.31;5044071;28;20758;-61
2022/05/04 08:32:37;;;;;;;6.10;5.17;;;;;;;18.33;47.36;100129.03;5054561;28;20302;-59
2022/05/04 08:35:02;;;;;;;9.77;5.33;;;;;;;18.37;47.43;100135.66;5054013;28;20185;-60
2022/05/04 08:37:28;;;;;;;8.77;6.30;;;;;;;18.27;47.11;100129.56;5056416;28;20206;-59
2022/05/04 08:39:55;;;;;;;5.93;5.43;;;;;;;18.25;47.40;100127.13;5052083;28;20185;-60
2022/05/04 08:42:21;;;;;;;8.37;6.30;;;;;;;17.63;49.65;100129.72;5056989;28;20583;-60
2022/05/04 08:44:50;;;;;;;6.57;5.90;;;;;;;17.56;49.46;100125.97;5054781;28;20216;-59
2022/05/04 08:47:20;;;;;;;6.77;6.10;;;;;;;17.87;48.57;100129.44;5049991;28;20182;-60
2022/05/04 08:49:47;;;;;;;8.25;6.78;;;;;;;18.02;48.38;100127.31;5070374;28;20419;-59
2022/05/04 08:52:13;;;;;;;7.23;5.60;;;;;;;18.06;48.62;100125.28;5060837;28;20232;-58
2022/05/04 08:54:40;;;;;;;6.53;5.90;;;;;;;18.25;48.04;100127.13;5054927;28;20185;-60
2022/05/04 08:57:06;;;;;;;5.90;5.20;;;;;;;19.55;45.11;100122.59;5053969;28;20204;-60
2022/05/04 08:59:31;;;;;;;10.13;5.53;;;;;;;20.91;41.75;100122.91;5052044;28;20174;-59
2022/05/04 09:01:56;;;;;;;5.63;5.10;;;;;;;21.75;39.73;100125.94;5068965;28;20236;-61
2022/05/04 09:04:22;;;;;;;4.90;4.40;;;;;;;22.49;38.23;100122.78;5052828;28;20173;-59
2022/05/04 09:06:48;;;;;;;6.80;5.30;;;;;;;24.59;35.00;100125.47;5057499;28;20165;-60
2022/05/04 09:09:14;;;;;;;9.53;5.50;;;;;;;25.78;33.41;100131.00;5070555;28;20279;-60
2022/05/04 09:11:42;;;;;;;5.40;4.90;;;;;;;27.47;30.44;100131.66;5060425;28;20658;-60
2022/05/04 09:14:15;;;;;;;7.95;5.72;;;;;;;28.64;28.32;100123.75;5071354;28;20200;-60
2022/05/04 09:16:42;;;;;;;6.47;5.43;;;;;;;28.96;28.43;100120.50;5071512;28;20231;-58
2022/05/04 09:19:13;;;;;;;5.30;4.80;;;;;;;29.99;26.94;100120.91;5071669;28;20196;-61
2022/05/04 09:21:39;;;;;;;5.55;5.05;;;;;;;29.46;27.19;100118.22;5060627;28;20224;-61
2022/05/04 09:24:05;;;;;;;5.20;4.57;;;;;;;29.71;27.49;100127.34;5071375;28;20263;-61
2022/05/04 09:26:32;;;;;;;6.57;5.35;;;;;;;28.62;28.16;100125.78;5071629;28;20181;-60
2022/05/04 09:29:00;;;;;;;6.47;5.07;;;;;;;29.24;27.53;100130.88;5069040;28;20193;-59
2022/05/04 09:31:28;;;;;;;7.80;5.40;;;;;;;27.72;29.13;100130.38;5054384;28;20701;-59
2022/05/04 09:33:56;;;;;;;6.20;5.00;;;;;;;27.34;29.18;100123.63;5058691;28;20186;-60
2022/05/04 09:36:32;;;;;;;5.75;5.15;;;;;;;27.44;28.39;100125.94;5056114;28;20197;-63
2022/05/04 09:44:54;;;;;;;6.78;5.22;;;;;;;27.96;28.74;100111.34;5071796;28;20267;-61
2022/05/04 09:47:21;;;;;;;7.68;5.63;;;;;;;28.61;29.06;100121.50;5071452;28;20179;-60
2022/05/04 09:49:50;;;;;;;6.50;5.88;;;;;;;27.51;29.93;100124.16;5071834;28;20184;-61
2022/05/04 09:52:21;;;;;;;6.13;4.97;;;;;;;29.42;27.90;100113.53;5060258;28;20304;-61
2022/05/04 09:54:47;;;;;;;10.07;5.75;;;;;;;30.47;26.24;100124.94;5071785;28;20588;-61
2022/05/04 09:57:13;;;;;;;8.98;5.65;;;;;;;29.10;27.20;100127.44;5069946;28;20299;-59
2022/05/04 09:59:41;;;;;;;6.22;5.63;;;;;;;29.65;26.54;100126.34;5071541;28;20181;-58
2022/05/04 10:02:09;;;;;;;5.82;5.32;;;;;;;30.29;27.09;100117.69;5062177;28;20780;-60
2022/05/04 10:04:36;;;;;;;6.47;5.90;;;;;;;30.26;25.81;100118.94;5050051;28;20613;-59
2022/05/04 10:07:03;;;;;;;10.68;5.75;;;;;;;29.71;26.59;100125.50;5057620;28;20205;-60
2022/05/04 10:09:29;;;;;;;7.32;5.65;;;;;;;29.05;27.82;100121.13;5071562;28;20204;-61
2022/05/04 10:11:58;;;;;;;5.80;5.20;;;;;;;30.43;26.57;100116.59;5060202;28;20228;-61
2022/05/04 10:14:28;;;;;;;6.13;5.53;;;;;;;30.57;25.76;100115.47;5071114;28;20260;-61
2022/05/04 10:17:15;;;;;;;7.15;6.30;;;;;;;31.67;23.26;100113.25;5070880;28;20204;-62
2022/05/04 10:19:49;;;;;;;8.02;6.32;;;;;;;28.84;28.20;100107.09;5071170;28;20191;-61
2022/05/04 10:22:20;;;;;;;7.10;5.32;;;;;;;30.25;26.42;100109.34;5058704;28;20675;-61
2022/05/04 10:24:45;;;;;;;8.48;5.78;;;;;;;29.80;26.31;100104.88;5052961;28;20185;-62
2022/05/04 10:27:17;;;;;;;5.40;4.90;;;;;;;29.52;27.42;100099.88;5066264;28;20227;-62
2022/05/04 10:32:34;;;;;;;7.28;6.32;;;;;;;29.69;26.37;100093.06;5074241;28;20226;-59
2022/05/04 10:35:27;;;;;;;6.75;5.90;;;;;;;30.06;25.81;100095.19;5062255;28;20185;-61
2022/05/04 10:37:57;;;;;;;6.03;5.45;;;;;;;29.48;27.47;100096.03;5050911;28;20201;-63
2022/05/04 10:40:59;;;;;;;6.60;6.00;;;;;;;27.11;30.04;100100.91;5043647;28;20756;-62
2022/05/04 10:43:36;;;;;;;8.20;4.95;;;;;;;25.83;32.56;100098.81;5009033;28;20266;-61
2022/05/04 10:46:21;;;;;;;6.65;5.85;;;;;;;23.78;34.98;100087.09;5008649;28;20200;-63
2022/05/04 10:49:05;;;;;;;5.75;5.18;;;;;;;23.41;35.85;100095.59;4992824;28;20183;-61
2022/05/04 10:51:36;;;;;;;7.38;6.65;;;;;;;23.44;36.18;100082.94;4982724;28;20232;-61
2022/05/04 10:54:09;;;;;;;8.45;5.93;;;;;;;23.16;37.48;100088.59;4996456;28;20197;-62
2022/05/04 10:56:39;;;;;;;6.82;5.97;;;;;;;23.02;36.00;100079.56;5012405;28;20186;-61
2022/05/04 10:59:05;;;;;;;6.25;5.65;;;;;;;22.59;37.27;100075.44;5013010;28;20246;-63
2022/05/04 11:01:34;;;;;;;9.50;5.97;;;;;;;22.61;38.67;100074.31;4973661;28;20243;-64
2022/05/04 11:04:11;;;;;;;8.87;5.70;;;;;;;22.19;38.87;100075.19;5004701;28;20199;-63
2022/05/04 11:06:45;;;;;;;7.30;6.60;;;;;;;21.14;40.18;100068.34;5012253;28;20185;-63
2022/05/04 11:09:18;;;;;;;6.17;5.47;;;;;;;20.92;41.96;100061.78;5012450;28;20206;-62
2022/05/04 11:11:51;;;;;;;6.63;6.00;;;;;;;21.34;42.20;100061.09;4988516;28;20231;-62
2022/05/04 11:14:18;;;;;;;6.73;6.13;;;;;;;21.15;42.28;100056.06;5010878;28;20211;-61
2022/05/04 11:16:45;;;;;;;8.80;7.67;;;;;;;21.13;41.46;100053.59;5016297;28;20313;-62
2022/05/04 11:19:14;;;;;;;6.47;5.80;;;;;;;21.49;42.02;100052.66;5064528;28;20212;-63
2022/05/04 11:21:40;;;;;;;5.90;5.17;;;;;;;21.41;41.27;100050.84;5076613;28;20292;-62
2022/05/04 11:24:09;;;;;;;11.77;6.30;;;;;;;21.19;41.27;100045.16;5073448;28;20635;-61
2022/05/04 11:26:37;;;;;;;6.47;5.43;;;;;;;20.99;42.05;100041.06;5073693;28;20219;-61
2022/05/04 11:29:14;;;;;;;6.47;5.87;;;;;;;20.86;41.98;100049.34;5074024;28;20187;-63
2022/05/04 11:31:47;;;;;;;6.50;5.90;;;;;;;21.19;42.64;100042.53;5042575;28;20224;-62
2022/05/04 11:34:16;;;;;;;8.50;5.53;;;;;;;21.51;42.29;100040.22;5074154;28;20175;-63
2022/05/04 11:36:45;;;;;;;6.50;5.23;;;;;;;22.20;40.60;100041.00;5073833;28;20201;-59
2022/05/04 11:39:12;;;;;;;7.40;5.00;;;;;;;22.34;40.34;100036.09;5074510;28;20628;-63
2022/05/04 11:41:38;;;;;;;6.00;5.40;;;;;;;22.94;39.85;100036.78;5060327;28;20220;-61
2022/05/04 11:44:03;;;;;;;6.30;5.70;;;;;;;22.75;38.48;100037.94;5054600;28;20532;-62
2022/05/04 11:46:30;;;;;;;6.23;5.43;;;;;;;22.72;39.99;100026.81;5053796;28;20672;-62
2022/05/04 11:48:57;;;;;;;7.47;5.73;;;;;;;22.29;39.43;100022.66;5053876;28;20242;-63
2022/05/04 11:51:22;;;;;;;5.60;5.10;;;;;;;22.18;40.29;100018.56;5053650;28;20608;-63
2022/05/04 11:53:48;;;;;;;5.80;5.30;;;;;;;22.01;39.84;100022.94;5058555;28;20256;-63
2022/05/04 11:56:13;;;;;;;6.00;5.50;;;;;;;21.40;41.72;100015.19;5052984;28;20177;-64
2022/05/04 11:58:39;;;;;;;7.77;7.07;;;;;;;21.51;42.12;100007.06;5053530;28;20257;-63